sensor_id;sensor_type;location;lat;lon;timestamp;temperature;humidity
47590;DHT22;33316;52.298;9.056;2023-05-29T00:00:59;15.50;71.70
47590;DHT22;33316;52.298;9.056;2023-05-29T00:03:27;15.40;71.70
47590;DHT22;33316;52.298;9.056;2023-05-29T00:05:55;15.40;71.80
47590;DHT22;33316;52.298;9.056;2023-05-29T00:08:22;15.40;71.90
47590;DHT22;33316;52.298;9.056;2023-05-29T00:10:49;15.30;72.00
47590;DHT22;33316;52.298;9.056;2023-05-29T00:13:18;15.30;72.10
47590;DHT22;33316;52.298;9.056;2023-05-29T00:15:46;15.30;72.20
47590;DHT22;33316;52.298;9.056;2023-05-29T00:18:13;15.20;72.20
47590;DHT22;33316;52.298;9.056;2023-05-29T00:20:40;15.20;72.30
47590;DHT22;33316;52.298;9.056;2023-05-29T00:23:08;15.20;72.20
47590;DHT22;33316;52.298;9.056;2023-05-29T00:25:35;15.20;72.10
47590;DHT22;33316;52.298;9.056;2023-05-29T00:28:02;15.10;72.10
47590;DHT22;33316;52.298;9.056;2023-05-29T00:30:29;15.10;72.10
47590;DHT22;33316;52.298;9.056;2023-05-29T00:32:56;15.00;72.80
47590;DHT22;33316;52.298;9.056;2023-05-29T00:35:23;15.00;72.00
47590;DHT22;33316;52.298;9.056;2023-05-29T00:37:49;14.90;72.00
47590;DHT22;33316;52.298;9.056;2023-05-29T00:40:18;14.90;72.10
47590;DHT22;33316;52.298;9.056;2023-05-29T00:42:45;14.90;72.10
47590;DHT22;33316;52.298;9.056;2023-05-29T00:45:12;14.80;72.00
47590;DHT22;33316;52.298;9.056;2023-05-29T00:47:39;14.70;72.10
47590;DHT22;33316;52.298;9.056;2023-05-29T00:50:08;14.70;72.20
47590;DHT22;33316;52.298;9.056;2023-05-29T00:52:37;14.70;72.20
47590;DHT22;33316;52.298;9.056;2023-05-29T00:55:05;14.60;72.20
47590;DHT22;33316;52.298;9.056;2023-05-29T00:57:33;14.60;72.30
47590;DHT22;33316;52.298;9.056;2023-05-29T01:00:01;14.60;72.40
47590;DHT22;33316;52.298;9.056;2023-05-29T01:02:29;14.50;72.40
47590;DHT22;33316;52.298;9.056;2023-05-29T01:04:56;14.50;72.40
47590;DHT22;33316;52.298;9.056;2023-05-29T01:07:23;14.40;72.50
47590;DHT22;33316;52.298;9.056;2023-05-29T01:09:51;14.40;72.60
47590;DHT22;33316;52.298;9.056;2023-05-29T01:12:26;14.30;72.70
47590;DHT22;33316;52.298;9.056;2023-05-29T01:15:09;14.30;72.90
47590;DHT22;33316;52.298;9.056;2023-05-29T01:17:43;14.30;73.00
47590;DHT22;33316;52.298;9.056;2023-05-29T01:20:22;14.20;73.00
47590;DHT22;33316;52.298;9.056;2023-05-29T01:26:11;14.20;73.20
47590;DHT22;33316;52.298;9.056;2023-05-29T01:28:48;14.10;73.20
47590;DHT22;33316;52.298;9.056;2023-05-29T01:31:22;14.10;73.20
47590;DHT22;33316;52.298;9.056;2023-05-29T01:33:52;14.00;73.30
47590;DHT22;33316;52.298;9.056;2023-05-29T01:36:19;14.00;73.40
47590;DHT22;33316;52.298;9.056;2023-05-29T01:38:46;14.00;73.50
47590;DHT22;33316;52.298;9.056;2023-05-29T01:41:14;13.90;73.60
47590;DHT22;33316;52.298;9.056;2023-05-29T01:43:42;13.90;73.70
47590;DHT22;33316;52.298;9.056;2023-05-29T01:46:11;13.80;73.80
47590;DHT22;33316;52.298;9.056;2023-05-29T01:48:38;13.80;73.90
47590;DHT22;33316;52.298;9.056;2023-05-29T01:51:05;13.80;74.00
47590;DHT22;33316;52.298;9.056;2023-05-29T01:53:32;13.80;74.20
47590;DHT22;33316;52.298;9.056;2023-05-29T01:55:59;13.70;74.30
47590;DHT22;33316;52.298;9.056;2023-05-29T01:58:27;13.70;74.50
47590;DHT22;33316;52.298;9.056;2023-05-29T02:00:56;13.60;74.50
47590;DHT22;33316;52.298;9.056;2023-05-29T02:03:27;13.60;74.60
47590;DHT22;33316;52.298;9.056;2023-05-29T02:05:55;13.60;74.80
47590;DHT22;33316;52.298;9.056;2023-05-29T02:08:22;13.50;74.80
47590;DHT22;33316;52.298;9.056;2023-05-29T02:10:52;13.50;74.90
47590;DHT22;33316;52.298;9.056;2023-05-29T02:13:19;13.50;75.00
47590;DHT22;33316;52.298;9.056;2023-05-29T02:15:46;13.50;75.20
47590;DHT22;33316;52.298;9.056;2023-05-29T02:18:14;13.40;75.20
47590;DHT22;33316;52.298;9.056;2023-05-29T02:20:44;13.40;75.40
47590;DHT22;33316;52.298;9.056;2023-05-29T02:23:11;13.40;75.40
47590;DHT22;33316;52.298;9.056;2023-05-29T02:25:38;13.30;75.50
47590;DHT22;33316;52.298;9.056;2023-05-29T02:28:05;13.30;75.60
47590;DHT22;33316;52.298;9.056;2023-05-29T02:30:35;13.30;75.70
47590;DHT22;33316;52.298;9.056;2023-05-29T02:33:02;13.30;75.80
47590;DHT22;33316;52.298;9.056;2023-05-29T02:35:29;13.20;75.90
47590;DHT22;33316;52.298;9.056;2023-05-29T02:38:00;13.20;76.00
47590;DHT22;33316;52.298;9.056;2023-05-29T02:40:26;13.10;76.00
47590;DHT22;33316;52.298;9.056;2023-05-29T02:42:53;13.10;76.10
47590;DHT22;33316;52.298;9.056;2023-05-29T02:45:20;13.10;76.00
47590;DHT22;33316;52.298;9.056;2023-05-29T02:47:47;13.10;76.10
47590;DHT22;33316;52.298;9.056;2023-05-29T02:50:13;13.10;76.20
47590;DHT22;33316;52.298;9.056;2023-05-29T02:52:42;13.10;76.20
47590;DHT22;33316;52.298;9.056;2023-05-29T02:55:10;13.00;76.20
47590;DHT22;33316;52.298;9.056;2023-05-29T02:57:37;13.00;76.30
47590;DHT22;33316;52.298;9.056;2023-05-29T03:00:04;13.00;76.40
47590;DHT22;33316;52.298;9.056;2023-05-29T03:02:33;13.00;76.50
47590;DHT22;33316;52.298;9.056;2023-05-29T03:05:03;13.00;76.50
47590;DHT22;33316;52.298;9.056;2023-05-29T03:07:30;12.90;76.60
47590;DHT22;33316;52.298;9.056;2023-05-29T03:09:57;12.80;76.70
47590;DHT22;33316;52.298;9.056;2023-05-29T03:12:25;12.80;76.80
47590;DHT22;33316;52.298;9.056;2023-05-29T03:14:53;12.80;77.00
47590;DHT22;33316;52.298;9.056;2023-05-29T03:17:21;12.80;77.00
47590;DHT22;33316;52.298;9.056;2023-05-29T03:19:48;12.80;77.10
47590;DHT22;33316;52.298;9.056;2023-05-29T03:22:15;12.70;77.00
47590;DHT22;33316;52.298;9.056;2023-05-29T03:24:42;12.70;77.00
47590;DHT22;33316;52.298;9.056;2023-05-29T03:27:08;12.70;77.00
47590;DHT22;33316;52.298;9.056;2023-05-29T03:29:37;12.70;77.00
47590;DHT22;33316;52.298;9.056;2023-05-29T03:32:04;12.60;77.10
47590;DHT22;33316;52.298;9.056;2023-05-29T03:34:31;12.60;77.10
47590;DHT22;33316;52.298;9.056;2023-05-29T03:36:58;12.60;77.00
47590;DHT22;33316;52.298;9.056;2023-05-29T03:39:24;12.60;77.10
47590;DHT22;33316;52.298;9.056;2023-05-29T03:41:51;12.50;77.10
47590;DHT22;33316;52.298;9.056;2023-05-29T03:44:18;12.50;77.30
47590;DHT22;33316;52.298;9.056;2023-05-29T03:46:47;12.40;77.40
47590;DHT22;33316;52.298;9.056;2023-05-29T03:49:14;12.40;77.60
47590;DHT22;33316;52.298;9.056;2023-05-29T03:51:41;12.40;77.70
47590;DHT22;33316;52.298;9.056;2023-05-29T03:54:08;12.40;77.80
47590;DHT22;33316;52.298;9.056;2023-05-29T03:56:35;12.40;77.90
47590;DHT22;33316;52.298;9.056;2023-05-29T03:59:02;12.40;77.90
47590;DHT22;33316;52.298;9.056;2023-05-29T04:01:29;12.40;78.00
47590;DHT22;33316;52.298;9.056;2023-05-29T04:03:57;12.40;78.10
47590;DHT22;33316;52.298;9.056;2023-05-29T04:06:24;12.40;78.30
47590;DHT22;33316;52.298;9.056;2023-05-29T04:08:51;12.50;78.40
47590;DHT22;33316;52.298;9.056;2023-05-29T04:11:18;12.50;78.40
47590;DHT22;33316;52.298;9.056;2023-05-29T04:13:46;12.50;78.50
47590;DHT22;33316;52.298;9.056;2023-05-29T04:16:15;12.50;78.60
47590;DHT22;33316;52.298;9.056;2023-05-29T04:18:42;12.50;78.50
47590;DHT22;33316;52.298;9.056;2023-05-29T04:21:11;12.50;78.40
47590;DHT22;33316;52.298;9.056;2023-05-29T04:23:37;12.60;78.50
47590;DHT22;33316;52.298;9.056;2023-05-29T04:26:04;12.60;78.40
47590;DHT22;33316;52.298;9.056;2023-05-29T04:28:32;12.60;78.40
47590;DHT22;33316;52.298;9.056;2023-05-29T04:30:58;12.60;78.30
47590;DHT22;33316;52.298;9.056;2023-05-29T04:33:26;12.70;78.40
47590;DHT22;33316;52.298;9.056;2023-05-29T04:35:53;12.70;78.50
47590;DHT22;33316;52.298;9.056;2023-05-29T04:38:25;12.70;78.40
47590;DHT22;33316;52.298;9.056;2023-05-29T04:40:52;12.80;78.50
47590;DHT22;33316;52.298;9.056;2023-05-29T04:43:22;12.80;78.40
47590;DHT22;33316;52.298;9.056;2023-05-29T04:45:51;12.80;78.40
47590;DHT22;33316;52.298;9.056;2023-05-29T04:48:18;12.90;78.40
47590;DHT22;33316;52.298;9.056;2023-05-29T04:50:45;12.90;78.40
47590;DHT22;33316;52.298;9.056;2023-05-29T04:53:14;12.90;78.40
47590;DHT22;33316;52.298;9.056;2023-05-29T04:55:42;13.00;78.40
47590;DHT22;33316;52.298;9.056;2023-05-29T04:58:09;13.00;78.40
47590;DHT22;33316;52.298;9.056;2023-05-29T05:00:40;13.10;78.40
47590;DHT22;33316;52.298;9.056;2023-05-29T05:03:08;13.10;78.30
47590;DHT22;33316;52.298;9.056;2023-05-29T05:05:36;13.10;78.20
47590;DHT22;33316;52.298;9.056;2023-05-29T05:08:03;13.20;78.20
47590;DHT22;33316;52.298;9.056;2023-05-29T05:10:29;13.20;78.10
47590;DHT22;33316;52.298;9.056;2023-05-29T05:12:57;13.30;78.10
47590;DHT22;33316;52.298;9.056;2023-05-29T05:15:25;13.30;77.90
47590;DHT22;33316;52.298;9.056;2023-05-29T05:17:51;13.40;77.70
47590;DHT22;33316;52.298;9.056;2023-05-29T05:20:18;13.50;77.40
47590;DHT22;33316;52.298;9.056;2023-05-29T05:22:45;13.70;77.20
47590;DHT22;33316;52.298;9.056;2023-05-29T05:25:12;13.90;77.00
47590;DHT22;33316;52.298;9.056;2023-05-29T05:27:39;14.00;76.50
47590;DHT22;33316;52.298;9.056;2023-05-29T05:30:08;14.20;76.30
47590;DHT22;33316;52.298;9.056;2023-05-29T05:32:38;14.30;75.60
47590;DHT22;33316;52.298;9.056;2023-05-29T05:35:05;14.40;74.90
47590;DHT22;33316;52.298;9.056;2023-05-29T05:37:33;14.50;74.80
47590;DHT22;33316;52.298;9.056;2023-05-29T05:40:00;14.70;74.80
47590;DHT22;33316;52.298;9.056;2023-05-29T05:42:26;14.80;74.40
47590;DHT22;33316;52.298;9.056;2023-05-29T05:44:53;14.80;74.00
47590;DHT22;33316;52.298;9.056;2023-05-29T05:47:21;14.90;73.40
47590;DHT22;33316;52.298;9.056;2023-05-29T05:49:48;14.90;73.20
47590;DHT22;33316;52.298;9.056;2023-05-29T05:52:16;15.00;73.00
47590;DHT22;33316;52.298;9.056;2023-05-29T05:54:43;15.10;73.00
47590;DHT22;33316;52.298;9.056;2023-05-29T05:57:10;15.20;72.50
47590;DHT22;33316;52.298;9.056;2023-05-29T05:59:37;15.20;72.20
47590;DHT22;33316;52.298;9.056;2023-05-29T06:02:04;15.20;72.00
47590;DHT22;33316;52.298;9.056;2023-05-29T06:04:32;15.30;71.70
47590;DHT22;33316;52.298;9.056;2023-05-29T06:06:59;15.30;71.50
47590;DHT22;33316;52.298;9.056;2023-05-29T06:09:26;15.40;71.40
47590;DHT22;33316;52.298;9.056;2023-05-29T06:11:53;15.50;71.30
47590;DHT22;33316;52.298;9.056;2023-05-29T06:14:20;15.50;71.20
47590;DHT22;33316;52.298;9.056;2023-05-29T06:16:47;15.60;71.10
47590;DHT22;33316;52.298;9.056;2023-05-29T06:19:14;15.70;70.80
47590;DHT22;33316;52.298;9.056;2023-05-29T06:21:42;15.80;70.50
47590;DHT22;33316;52.298;9.056;2023-05-29T06:24:09;15.90;70.10
47590;DHT22;33316;52.298;9.056;2023-05-29T06:26:36;16.00;69.70
47590;DHT22;33316;52.298;9.056;2023-05-29T06:29:03;16.00;69.50
47590;DHT22;33316;52.298;9.056;2023-05-29T06:31:32;16.00;69.40
47590;DHT22;33316;52.298;9.056;2023-05-29T06:33:59;16.00;69.20
47590;DHT22;33316;52.298;9.056;2023-05-29T06:36:26;16.00;69.50
47590;DHT22;33316;52.298;9.056;2023-05-29T06:38:54;16.10;69.30
47590;DHT22;33316;52.298;9.056;2023-05-29T06:41:21;16.20;68.70
47590;DHT22;33316;52.298;9.056;2023-05-29T06:43:48;16.20;68.60
47590;DHT22;33316;52.298;9.056;2023-05-29T06:46:21;16.30;68.70
47590;DHT22;33316;52.298;9.056;2023-05-29T06:48:48;16.30;68.40
47590;DHT22;33316;52.298;9.056;2023-05-29T06:51:22;16.30;67.90
47590;DHT22;33316;52.298;9.056;2023-05-29T06:53:49;16.30;68.00
47590;DHT22;33316;52.298;9.056;2023-05-29T06:56:21;16.40;67.80
47590;DHT22;33316;52.298;9.056;2023-05-29T06:58:47;16.30;67.60
47590;DHT22;33316;52.298;9.056;2023-05-29T07:01:14;16.30;66.80
47590;DHT22;33316;52.298;9.056;2023-05-29T07:03:42;16.30;66.90
47590;DHT22;33316;52.298;9.056;2023-05-29T07:06:12;16.20;66.80
47590;DHT22;33316;52.298;9.056;2023-05-29T07:08:41;16.30;67.00
47590;DHT22;33316;52.298;9.056;2023-05-29T07:11:13;16.30;66.60
47590;DHT22;33316;52.298;9.056;2023-05-29T07:13:41;16.40;66.60
47590;DHT22;33316;52.298;9.056;2023-05-29T07:16:11;16.40;65.70
47590;DHT22;33316;52.298;9.056;2023-05-29T07:18:37;16.30;65.60
47590;DHT22;33316;52.298;9.056;2023-05-29T07:21:04;16.30;66.00
47590;DHT22;33316;52.298;9.056;2023-05-29T07:23:31;16.30;65.60
47590;DHT22;33316;52.298;9.056;2023-05-29T07:25:58;16.30;65.40
47590;DHT22;33316;52.298;9.056;2023-05-29T07:28:25;16.30;65.40
47590;DHT22;33316;52.298;9.056;2023-05-29T07:30:53;16.30;65.30
47590;DHT22;33316;52.298;9.056;2023-05-29T07:33:20;16.30;65.40
47590;DHT22;33316;52.298;9.056;2023-05-29T07:35:47;16.40;65.50
47590;DHT22;33316;52.298;9.056;2023-05-29T07:38:14;16.40;65.90
47590;DHT22;33316;52.298;9.056;2023-05-29T07:40:41;16.50;65.30
47590;DHT22;33316;52.298;9.056;2023-05-29T07:43:08;16.50;65.30
47590;DHT22;33316;52.298;9.056;2023-05-29T07:45:35;16.60;64.90
47590;DHT22;33316;52.298;9.056;2023-05-29T07:48:03;16.60;64.80
47590;DHT22;33316;52.298;9.056;2023-05-29T07:50:30;16.60;64.50
47590;DHT22;33316;52.298;9.056;2023-05-29T07:52:57;16.60;64.40
47590;DHT22;33316;52.298;9.056;2023-05-29T07:55:24;16.60;64.40
47590;DHT22;33316;52.298;9.056;2023-05-29T07:57:51;16.50;64.10
47590;DHT22;33316;52.298;9.056;2023-05-29T08:00:18;16.50;64.40
47590;DHT22;33316;52.298;9.056;2023-05-29T08:02:45;16.60;64.50
47590;DHT22;33316;52.298;9.056;2023-05-29T08:05:14;16.60;64.40
47590;DHT22;33316;52.298;9.056;2023-05-29T08:07:40;16.70;64.60
47590;DHT22;33316;52.298;9.056;2023-05-29T08:10:11;16.80;64.20
47590;DHT22;33316;52.298;9.056;2023-05-29T08:12:38;16.80;64.10
47590;DHT22;33316;52.298;9.056;2023-05-29T08:15:05;16.80;63.70
47590;DHT22;33316;52.298;9.056;2023-05-29T08:17:33;16.80;63.20
47590;DHT22;33316;52.298;9.056;2023-05-29T08:20:00;16.70;63.20
47590;DHT22;33316;52.298;9.056;2023-05-29T08:22:32;16.70;64.10
47590;DHT22;33316;52.298;9.056;2023-05-29T08:25:00;16.80;64.50
47590;DHT22;33316;52.298;9.056;2023-05-29T08:27:27;16.90;64.50
47590;DHT22;33316;52.298;9.056;2023-05-29T08:29:53;17.00;63.60
47590;DHT22;33316;52.298;9.056;2023-05-29T08:32:21;17.10;63.70
47590;DHT22;33316;52.298;9.056;2023-05-29T08:34:48;17.20;63.10
47590;DHT22;33316;52.298;9.056;2023-05-29T08:37:15;17.30;63.20
47590;DHT22;33316;52.298;9.056;2023-05-29T08:39:44;17.30;62.90
47590;DHT22;33316;52.298;9.056;2023-05-29T08:42:13;17.40;62.90
47590;DHT22;33316;52.298;9.056;2023-05-29T08:44:46;17.40;62.50
47590;DHT22;33316;52.298;9.056;2023-05-29T08:47:15;17.50;62.40
47590;DHT22;33316;52.298;9.056;2023-05-29T08:49:51;17.50;63.20
47590;DHT22;33316;52.298;9.056;2023-05-29T08:52:21;17.50;61.40
47590;DHT22;33316;52.298;9.056;2023-05-29T08:54:50;17.50;61.40
47590;DHT22;33316;52.298;9.056;2023-05-29T08:57:17;17.50;61.30
47590;DHT22;33316;52.298;9.056;2023-05-29T08:59:44;17.50;61.40
47590;DHT22;33316;52.298;9.056;2023-05-29T09:02:13;17.60;61.80
47590;DHT22;33316;52.298;9.056;2023-05-29T09:04:41;17.60;61.90
47590;DHT22;33316;52.298;9.056;2023-05-29T09:07:11;17.70;62.00
47590;DHT22;33316;52.298;9.056;2023-05-29T09:09:38;17.80;61.60
47590;DHT22;33316;52.298;9.056;2023-05-29T09:12:09;17.90;61.50
47590;DHT22;33316;52.298;9.056;2023-05-29T09:14:37;18.00;61.20
47590;DHT22;33316;52.298;9.056;2023-05-29T09:17:07;18.00;60.30
47590;DHT22;33316;52.298;9.056;2023-05-29T09:19:35;18.00;60.20
47590;DHT22;33316;52.298;9.056;2023-05-29T09:22:04;17.90;60.20
47590;DHT22;33316;52.298;9.056;2023-05-29T09:24:32;17.90;60.90
47590;DHT22;33316;52.298;9.056;2023-05-29T09:27:02;18.00;60.90
47590;DHT22;33316;52.298;9.056;2023-05-29T09:29:32;18.00;60.50
47590;DHT22;33316;52.298;9.056;2023-05-29T09:31:59;18.10;61.20
47590;DHT22;33316;52.298;9.056;2023-05-29T09:34:28;18.10;61.50
47590;DHT22;33316;52.298;9.056;2023-05-29T09:37:01;18.30;62.60
47590;DHT22;33316;52.298;9.056;2023-05-29T09:39:34;18.40;61.40
47590;DHT22;33316;52.298;9.056;2023-05-29T09:42:00;18.50;60.80
47590;DHT22;33316;52.298;9.056;2023-05-29T09:44:28;18.60;60.40
47590;DHT22;33316;52.298;9.056;2023-05-29T09:46:59;18.50;59.80
47590;DHT22;33316;52.298;9.056;2023-05-29T09:49:26;18.60;59.80
47590;DHT22;33316;52.298;9.056;2023-05-29T09:51:54;18.60;60.20
47590;DHT22;33316;52.298;9.056;2023-05-29T09:54:20;18.60;59.80
47590;DHT22;33316;52.298;9.056;2023-05-29T09:56:50;18.70;59.50
47590;DHT22;33316;52.298;9.056;2023-05-29T09:59:17;18.60;59.30
47590;DHT22;33316;52.298;9.056;2023-05-29T10:01:46;18.70;60.20
47590;DHT22;33316;52.298;9.056;2023-05-29T10:04:15;18.80;59.60
47590;DHT22;33316;52.298;9.056;2023-05-29T10:06:45;18.70;60.10
47590;DHT22;33316;52.298;9.056;2023-05-29T10:09:16;18.80;60.50
47590;DHT22;33316;52.298;9.056;2023-05-29T10:11:47;18.90;60.40
47590;DHT22;33316;52.298;9.056;2023-05-29T10:14:17;19.00;60.50
47590;DHT22;33316;52.298;9.056;2023-05-29T10:16:46;19.10;60.40
47590;DHT22;33316;52.298;9.056;2023-05-29T10:19:19;19.20;59.10
47590;DHT22;33316;52.298;9.056;2023-05-29T10:21:49;19.10;58.90
47590;DHT22;33316;52.298;9.056;2023-05-29T10:24:18;19.10;58.60
47590;DHT22;33316;52.298;9.056;2023-05-29T10:26:49;19.00;58.70
47590;DHT22;33316;52.298;9.056;2023-05-29T10:29:22;19.00;58.90
47590;DHT22;33316;52.298;9.056;2023-05-29T10:32:03;19.10;58.60
47590;DHT22;33316;52.298;9.056;2023-05-29T10:34:39;19.00;58.20
47590;DHT22;33316;52.298;9.056;2023-05-29T10:37:18;19.00;58.80
47590;DHT22;33316;52.298;9.056;2023-05-29T10:39:48;19.00;59.50
47590;DHT22;33316;52.298;9.056;2023-05-29T10:42:42;19.10;59.60
47590;DHT22;33316;52.298;9.056;2023-05-29T10:45:11;19.20;60.00
47590;DHT22;33316;52.298;9.056;2023-05-29T10:48:35;19.30;59.20
47590;DHT22;33316;52.298;9.056;2023-05-29T10:51:05;19.40;59.20
47590;DHT22;33316;52.298;9.056;2023-05-29T10:53:32;19.50;59.00
47590;DHT22;33316;52.298;9.056;2023-05-29T10:56:00;19.60;58.40
47590;DHT22;33316;52.298;9.056;2023-05-29T10:58:30;19.50;57.90
47590;DHT22;33316;52.298;9.056;2023-05-29T11:00:57;19.50;58.00
47590;DHT22;33316;52.298;9.056;2023-05-29T11:03:25;19.50;57.60
47590;DHT22;33316;52.298;9.056;2023-05-29T11:05:56;19.50;57.90
47590;DHT22;33316;52.298;9.056;2023-05-29T11:08:32;19.50;57.10
47590;DHT22;33316;52.298;9.056;2023-05-29T11:11:02;19.40;57.10
47590;DHT22;33316;52.298;9.056;2023-05-29T11:13:33;19.40;56.90
47590;DHT22;33316;52.298;9.056;2023-05-29T11:16:11;19.40;57.10
47590;DHT22;33316;52.298;9.056;2023-05-29T11:18:42;19.50;58.20
47590;DHT22;33316;52.298;9.056;2023-05-29T11:21:27;19.60;57.90
47590;DHT22;33316;52.298;9.056;2023-05-29T11:23:59;19.60;57.40
47590;DHT22;33316;52.298;9.056;2023-05-29T11:26:30;19.50;56.90
47590;DHT22;33316;52.298;9.056;2023-05-29T11:29:00;19.50;57.50
47590;DHT22;33316;52.298;9.056;2023-05-29T11:31:32;19.50;57.70
47590;DHT22;33316;52.298;9.056;2023-05-29T11:34:01;19.50;57.40
47590;DHT22;33316;52.298;9.056;2023-05-29T11:36:30;19.50;57.40
47590;DHT22;33316;52.298;9.056;2023-05-29T11:39:00;19.60;58.00
47590;DHT22;33316;52.298;9.056;2023-05-29T11:41:27;19.60;57.90
47590;DHT22;33316;52.298;9.056;2023-05-29T11:43:57;19.60;57.90
47590;DHT22;33316;52.298;9.056;2023-05-29T11:46:24;19.60;57.50
47590;DHT22;33316;52.298;9.056;2023-05-29T11:48:53;19.50;57.30
47590;DHT22;33316;52.298;9.056;2023-05-29T11:51:20;19.50;57.70
47590;DHT22;33316;52.298;9.056;2023-05-29T11:53:47;19.50;57.20
47590;DHT22;33316;52.298;9.056;2023-05-29T11:56:16;19.50;57.70
47590;DHT22;33316;52.298;9.056;2023-05-29T11:58:43;19.50;57.80
47590;DHT22;33316;52.298;9.056;2023-05-29T12:01:09;19.60;58.00
47590;DHT22;33316;52.298;9.056;2023-05-29T12:03:40;19.60;57.70
47590;DHT22;33316;52.298;9.056;2023-05-29T12:06:08;19.70;57.80
47590;DHT22;33316;52.298;9.056;2023-05-29T12:08:36;19.70;57.20
47590;DHT22;33316;52.298;9.056;2023-05-29T12:11:03;19.70;57.50
47590;DHT22;33316;52.298;9.056;2023-05-29T12:13:32;19.60;57.40
47590;DHT22;33316;52.298;9.056;2023-05-29T12:16:00;19.70;57.80
47590;DHT22;33316;52.298;9.056;2023-05-29T12:18:28;19.70;58.30
47590;DHT22;33316;52.298;9.056;2023-05-29T12:20:57;19.70;58.00
47590;DHT22;33316;52.298;9.056;2023-05-29T12:23:24;19.70;57.90
47590;DHT22;33316;52.298;9.056;2023-05-29T12:25:51;19.60;57.20
47590;DHT22;33316;52.298;9.056;2023-05-29T12:28:18;19.70;57.70
47590;DHT22;33316;52.298;9.056;2023-05-29T12:30:48;19.70;57.30
47590;DHT22;33316;52.298;9.056;2023-05-29T12:33:26;19.70;57.30
47590;DHT22;33316;52.298;9.056;2023-05-29T12:35:53;19.70;57.10
47590;DHT22;33316;52.298;9.056;2023-05-29T12:38:22;19.70;57.60
47590;DHT22;33316;52.298;9.056;2023-05-29T12:40:49;19.60;56.90
47590;DHT22;33316;52.298;9.056;2023-05-29T12:43:17;19.60;56.70
47590;DHT22;33316;52.298;9.056;2023-05-29T12:45:44;19.60;57.70
47590;DHT22;33316;52.298;9.056;2023-05-29T12:48:13;19.60;57.80
47590;DHT22;33316;52.298;9.056;2023-05-29T12:50:40;19.70;58.20
47590;DHT22;33316;52.298;9.056;2023-05-29T12:53:08;19.80;57.70
47590;DHT22;33316;52.298;9.056;2023-05-29T12:55:36;19.90;57.30
47590;DHT22;33316;52.298;9.056;2023-05-29T12:58:04;19.90;57.60
47590;DHT22;33316;52.298;9.056;2023-05-29T13:00:33;20.00;57.20
47590;DHT22;33316;52.298;9.056;2023-05-29T13:02:59;20.10;57.30
47590;DHT22;33316;52.298;9.056;2023-05-29T13:05:28;20.20;57.30
47590;DHT22;33316;52.298;9.056;2023-05-29T13:07:55;20.30;56.90
47590;DHT22;33316;52.298;9.056;2023-05-29T13:10:22;20.40;56.80
47590;DHT22;33316;52.298;9.056;2023-05-29T13:12:51;20.50;56.60
47590;DHT22;33316;52.298;9.056;2023-05-29T13:15:20;20.50;56.30
47590;DHT22;33316;52.298;9.056;2023-05-29T13:17:48;20.60;55.60
47590;DHT22;33316;52.298;9.056;2023-05-29T13:20:15;20.60;54.80
47590;DHT22;33316;52.298;9.056;2023-05-29T13:22:44;20.60;54.10
47590;DHT22;33316;52.298;9.056;2023-05-29T13:25:13;20.50;53.70
47590;DHT22;33316;52.298;9.056;2023-05-29T13:27:42;20.50;54.40
47590;DHT22;33316;52.298;9.056;2023-05-29T13:30:11;20.60;54.60
47590;DHT22;33316;52.298;9.056;2023-05-29T13:32:38;20.60;53.00
47590;DHT22;33316;52.298;9.056;2023-05-29T13:35:07;20.70;52.40
47590;DHT22;33316;52.298;9.056;2023-05-29T13:37:35;20.60;51.00
47590;DHT22;33316;52.298;9.056;2023-05-29T13:40:04;20.60;51.50
47590;DHT22;33316;52.298;9.056;2023-05-29T13:42:32;20.60;51.80
47590;DHT22;33316;52.298;9.056;2023-05-29T13:44:59;20.70;51.90
47590;DHT22;33316;52.298;9.056;2023-05-29T13:47:25;20.70;51.70
47590;DHT22;33316;52.298;9.056;2023-05-29T13:49:57;20.80;51.80
47590;DHT22;33316;52.298;9.056;2023-05-29T13:52:24;20.80;52.30
47590;DHT22;33316;52.298;9.056;2023-05-29T13:54:51;20.90;52.20
47590;DHT22;33316;52.298;9.056;2023-05-29T13:57:19;21.00;52.10
47590;DHT22;33316;52.298;9.056;2023-05-29T13:59:46;21.00;51.10
47590;DHT22;33316;52.298;9.056;2023-05-29T14:02:15;21.00;51.40
47590;DHT22;33316;52.298;9.056;2023-05-29T14:04:42;21.00;50.90
47590;DHT22;33316;52.298;9.056;2023-05-29T14:07:09;21.00;50.50
47590;DHT22;33316;52.298;9.056;2023-05-29T14:09:36;21.10;51.00
47590;DHT22;33316;52.298;9.056;2023-05-29T14:12:03;21.10;50.70
47590;DHT22;33316;52.298;9.056;2023-05-29T14:14:32;21.10;50.70
47590;DHT22;33316;52.298;9.056;2023-05-29T14:16:59;21.20;51.10
47590;DHT22;33316;52.298;9.056;2023-05-29T14:19:29;21.20;49.20
47590;DHT22;33316;52.298;9.056;2023-05-29T14:21:56;21.10;49.20
47590;DHT22;33316;52.298;9.056;2023-05-29T14:24:25;21.10;49.90
47590;DHT22;33316;52.298;9.056;2023-05-29T14:26:52;21.10;49.50
47590;DHT22;33316;52.298;9.056;2023-05-29T14:29:18;21.10;49.20
47590;DHT22;33316;52.298;9.056;2023-05-29T14:31:47;21.10;49.70
47590;DHT22;33316;52.298;9.056;2023-05-29T14:34:14;21.10;49.00
47590;DHT22;33316;52.298;9.056;2023-05-29T14:36:41;21.10;49.70
47590;DHT22;33316;52.298;9.056;2023-05-29T14:39:10;21.10;49.90
47590;DHT22;33316;52.298;9.056;2023-05-29T14:41:40;21.10;49.20
47590;DHT22;33316;52.298;9.056;2023-05-29T14:44:07;21.10;49.60
47590;DHT22;33316;52.298;9.056;2023-05-29T14:46:33;21.00;47.50
47590;DHT22;33316;52.298;9.056;2023-05-29T14:49:01;21.00;47.50
47590;DHT22;33316;52.298;9.056;2023-05-29T14:51:28;21.00;48.50
47590;DHT22;33316;52.298;9.056;2023-05-29T14:53:55;21.00;49.70
47590;DHT22;33316;52.298;9.056;2023-05-29T14:56:22;21.00;49.40
47590;DHT22;33316;52.298;9.056;2023-05-29T14:58:49;21.00;49.20
47590;DHT22;33316;52.298;9.056;2023-05-29T15:01:16;21.00;49.60
47590;DHT22;33316;52.298;9.056;2023-05-29T15:03:43;21.00;50.40
47590;DHT22;33316;52.298;9.056;2023-05-29T15:06:12;21.10;50.60
47590;DHT22;33316;52.298;9.056;2023-05-29T15:08:39;21.10;50.60
47590;DHT22;33316;52.298;9.056;2023-05-29T15:11:08;21.20;51.00
47590;DHT22;33316;52.298;9.056;2023-05-29T15:13:37;21.30;50.70
47590;DHT22;33316;52.298;9.056;2023-05-29T15:16:04;21.20;50.60
47590;DHT22;33316;52.298;9.056;2023-05-29T15:18:31;21.30;50.40
47590;DHT22;33316;52.298;9.056;2023-05-29T15:20:57;21.20;50.20
47590;DHT22;33316;52.298;9.056;2023-05-29T15:23:27;21.20;50.30
47590;DHT22;33316;52.298;9.056;2023-05-29T15:25:54;21.20;50.50
47590;DHT22;33316;52.298;9.056;2023-05-29T15:28:21;21.20;51.30
47590;DHT22;33316;52.298;9.056;2023-05-29T15:30:48;21.20;51.60
47590;DHT22;33316;52.298;9.056;2023-05-29T15:33:15;21.20;51.60
47590;DHT22;33316;52.298;9.056;2023-05-29T15:35:42;21.20;50.40
47590;DHT22;33316;52.298;9.056;2023-05-29T15:38:09;21.10;50.70
47590;DHT22;33316;52.298;9.056;2023-05-29T15:40:39;21.00;50.70